Time;durP1;ratioP1;P1;durP2;ratioP2;P2;SDS_P1;SDS_P2;PMS_P1;PMS_P2;Temp;Humidity;BMP_temperature;BMP_pressure;BME280_temperature;BME280_humidity;BME280_pressure;Samples;Min_cycle;Max_cycle;Signal;HPM_P1;HPM_P2
2023/11/15 00:00:26;;;;;;;13.60;13.30;;;11.00;1.00;;;;;;4926937;29;20538;-78
2023/11/15 00:02:55;;;;;;;13.90;13.50;;;10.90;1.00;;;;;;4921925;29;20461;-80
2023/11/15 00:05:23;;;;;;;14.03;13.50;;;11.00;1.00;;;;;;4921549;29;20460;-78
2023/11/15 00:07:55;;;;;;;14.30;13.90;;;11.00;1.00;;;;;;4924870;29;20489;-79
2023/11/15 00:10:24;;;;;;;14.00;13.60;;;10.90;99.90;;;;;;4921121;29;20508;-79
2023/11/15 00:12:52;;;;;;;13.60;13.30;;;10.90;1.00;;;;;;4924112;29;20467;-78
2023/11/15 00:15:20;;;;;;;13.90;13.50;;;10.90;99.90;;;;;;4920083;29;20472;-78
2023/11/15 00:17:48;;;;;;;13.80;13.40;;;11.00;81.00;;;;;;4922580;29;20486;-78
2023/11/15 00:20:16;;;;;;;14.37;13.90;;;10.90;1.00;;;;;;4920978;29;20477;-79
2023/11/15 00:22:44;;;;;;;13.77;13.23;;;10.90;26.80;;;;;;4919951;29;20466;-82
2023/11/15 00:25:14;;;;;;;13.90;13.40;;;10.90;1.00;;;;;;4920717;29;20459;-78
2023/11/15 00:27:45;;;;;;;13.70;13.30;;;10.90;99.90;;;;;;4923345;29;20495;-78
2023/11/15 00:30:14;;;;;;;14.00;13.60;;;10.90;1.00;;;;;;4924791;29;20454;-79
2023/11/15 00:32:42;;;;;;;13.87;13.47;;;10.80;1.00;;;;;;4926960;29;20493;-78
2023/11/15 00:35:12;;;;;;;13.83;13.13;;;10.90;1.00;;;;;;4929109;29;20449;-79
2023/11/15 00:37:42;;;;;;;13.77;13.37;;;10.80;99.90;;;;;;4925426;29;20468;-77
2023/11/15 00:40:13;;;;;;;13.77;13.30;;;10.80;99.90;;;;;;4924309;29;20465;-77
2023/11/15 00:42:43;;;;;;;13.33;13.03;;;10.80;39.00;;;;;;4928485;29;20476;-79
2023/11/15 00:45:12;;;;;;;13.60;13.20;;;10.80;97.90;;;;;;4924078;29;20512;-78
2023/11/15 00:47:40;;;;;;;13.20;12.90;;;10.80;48.70;;;;;;4926516;29;20500;-78
2023/11/15 00:50:10;;;;;;;13.50;13.10;;;10.80;97.90;;;;;;4919563;29;20497;-80
2023/11/15 00:52:38;;;;;;;13.80;13.20;;;10.80;99.90;;;;;;4921357;29;20478;-80
2023/11/15 00:55:08;;;;;;;13.20;12.90;;;10.80;99.90;;;;;;4924361;29;20949;-83
2023/11/15 00:57:36;;;;;;;13.43;12.87;;;10.80;1.00;;;;;;4923232;29;20483;-79
2023/11/15 01:00:22;;;;;;;13.50;13.00;;;10.80;1.00;;;;;;4923728;29;20446;-81
2023/11/15 01:02:51;;;;;;;13.40;13.10;;;10.80;1.00;;;;;;4921114;29;20470;-77
2023/11/15 01:05:19;;;;;;;13.33;12.93;;;10.80;1.00;;;;;;4925342;29;20560;-76
2023/11/15 01:07:48;;;;;;;13.07;12.77;;;10.80;1.00;;;;;;4921732;29;20494;-78
2023/11/15 01:10:18;;;;;;;14.10;13.43;;;10.80;6.40;;;;;;4923024;29;20445;-78
2023/11/15 01:12:46;;;;;;;13.20;12.80;;;10.80;1.00;;;;;;4923019;29;20469;-79
2023/11/15 01:15:16;;;;;;;13.93;13.63;;;10.80;1.00;;;;;;4919938;29;21169;-81
2023/11/15 01:17:46;;;;;;;13.63;13.20;;;10.80;1.00;;;;;;4922492;29;20488;-78
2023/11/15 01:20:15;;;;;;;13.30;13.00;;;10.70;99.90;;;;;;4924552;29;20464;-78
2023/11/15 01:22:43;;;;;;;13.70;13.10;;;10.80;1.00;;;;;;4916601;29;20466;-79
2023/11/15 01:25:12;;;;;;;13.53;13.13;;;10.80;1.00;;;;;;4922674;29;20473;-78
2023/11/15 01:27:40;;;;;;;13.17;12.87;;;10.80;1.00;;;;;;4927560;29;20554;-81
2023/11/15 01:30:09;;;;;;;13.30;13.00;;;10.80;1.00;;;;;;4925813;29;20541;-77
2023/11/15 01:32:40;;;;;;;13.63;13.23;;;10.80;1.00;;;;;;4926431;29;20547;-77
2023/11/15 01:35:09;;;;;;;13.80;13.50;;;10.80;1.00;;;;;;4928512;29;20469;-77
2023/11/15 01:37:37;;;;;;;13.80;13.40;;;10.80;1.00;;;;;;4925275;29;20473;-77
2023/11/15 01:40:07;;;;;;;16.63;15.50;;;10.80;1.00;;;;;;4924747;29;20559;-79
2023/11/15 01:42:35;;;;;;;13.50;13.20;;;10.80;1.00;;;;;;4927734;29;20955;-78
2023/11/15 01:45:03;;;;;;;14.00;13.47;;;10.80;57.70;;;;;;4925659;29;20524;-77
2023/11/15 01:47:31;;;;;;;13.57;13.20;;;10.80;99.90;;;;;;4927236;29;20881;-79
2023/11/15 01:50:04;;;;;;;13.50;13.10;;;10.80;1.00;;;;;;4925976;29;20462;-79
2023/11/15 01:52:32;;;;;;;13.80;13.40;;;10.80;1.00;;;;;;4926045;29;20466;-79
2023/11/15 01:55:01;;;;;;;13.53;13.20;;;10.80;8.10;;;;;;4928902;29;20565;-78
2023/11/15 01:57:29;;;;;;;13.40;13.10;;;10.80;99.90;;;;;;4919264;29;20999;-78
2023/11/15 01:59:59;;;;;;;13.50;13.20;;;10.80;99.90;;;;;;4926460;29;20457;-78
2023/11/15 02:02:27;;;;;;;13.60;13.00;;;10.80;99.90;;;;;;4927080;29;20547;-79
2023/11/15 02:04:55;;;;;;;13.57;12.90;;;10.80;99.90;;;;;;4927321;29;20552;-79
2023/11/15 02:07:25;;;;;;;13.40;13.00;;;10.80;99.90;;;;;;4925145;29;20902;-80
2023/11/15 02:09:53;;;;;;;13.00;12.67;;;10.70;99.90;;;;;;4925733;29;20449;-77
2023/11/15 02:12:22;;;;;;;13.00;12.70;;;10.70;99.90;;;;;;4930218;29;20544;-79
2023/11/15 02:14:50;;;;;;;13.50;13.10;;;10.70;99.90;;;;;;4927964;29;20458;-78
2023/11/15 02:17:18;;;;;;;13.00;12.60;;;10.70;99.90;;;;;;4924744;29;20453;-77
2023/11/15 02:19:47;;;;;;;13.30;13.00;;;10.70;99.90;;;;;;4929160;29;21035;-78
2023/11/15 02:22:15;;;;;;;13.83;13.33;;;10.70;99.90;;;;;;4930942;29;21001;-78
2023/11/15 02:24:44;;;;;;;13.23;12.87;;;10.70;99.90;;;;;;4927267;29;20850;-78
2023/11/15 02:27:12;;;;;;;13.40;12.90;;;10.70;1.00;;;;;;4927284;29;20481;-77
2023/11/15 02:29:40;;;;;;;13.70;13.20;;;10.70;1.00;;;;;;4926555;29;20469;-80
2023/11/15 02:32:09;;;;;;;13.80;13.30;;;10.70;99.90;;;;;;4928304;29;20472;-82
2023/11/15 02:34:37;;;;;;;13.60;13.20;;;10.70;99.90;;;;;;4923862;29;21334;-78
2023/11/15 02:37:07;;;;;;;13.17;12.87;;;10.70;99.90;;;;;;4926380;29;20449;-78
2023/11/15 02:39:35;;;;;;;13.17;12.87;;;10.60;99.90;;;;;;4927528;29;20450;-79
2023/11/15 02:42:05;;;;;;;13.23;12.73;;;10.60;99.90;;;;;;4924898;29;20445;-80
2023/11/15 02:44:35;;;;;;;13.17;12.60;;;10.60;99.90;;;;;;4924383;29;20465;-80
2023/11/15 02:47:06;;;;;;;13.03;12.73;;;10.60;96.50;;;;;;4926434;29;20461;-78
2023/11/15 02:49:34;;;;;;;13.33;12.80;;;10.60;1.00;;;;;;4925659;29;20948;-81
2023/11/15 02:52:02;;;;;;;13.70;13.10;;;10.60;99.90;;;;;;4925130;29;20802;-78
2023/11/15 02:54:31;;;;;;;12.50;12.20;;;10.60;99.90;;;;;;4924366;29;21003;-81
2023/11/15 02:56:59;;;;;;;13.60;13.00;;;10.60;72.40;;;;;;4926376;29;20457;-80
2023/11/15 02:59:29;;;;;;;12.97;12.67;;;10.60;99.90;;;;;;4926998;29;20484;-80
2023/11/15 03:01:57;;;;;;;13.50;13.00;;;10.60;99.90;;;;;;4925083;29;20981;-79
2023/11/15 03:04:27;;;;;;;13.80;13.20;;;10.60;99.90;;;;;;4925643;29;20458;-78
2023/11/15 03:06:55;;;;;;;13.40;13.10;;;10.60;21.00;;;;;;4925457;29;20493;-78
2023/11/15 03:09:23;;;;;;;13.50;13.10;;;10.60;78.10;;;;;;4928345;29;20476;-80
2023/11/15 03:11:51;;;;;;;13.67;13.27;;;10.60;99.90;;;;;;4924400;29;20939;-80
2023/11/15 03:14:19;;;;;;;13.20;12.80;;;10.70;76.60;;;;;;4929582;29;20457;-78
2023/11/15 03:16:49;;;;;;;13.67;13.27;;;10.60;48.30;;;;;;4924744;29;20972;-79
2023/11/15 03:19:17;;;;;;;13.10;12.70;;;10.60;77.10;;;;;;4927396;29;20469;-78
2023/11/15 03:21:45;;;;;;;13.60;13.20;;;10.60;99.90;;;;;;4924634;29;20999;-79
2023/11/15 03:24:13;;;;;;;13.90;13.50;;;10.60;99.90;;;;;;4926086;29;20464;-77
2023/11/15 03:26:42;;;;;;;14.50;13.87;;;10.60;99.90;;;;;;4923967;29;20742;-77
2023/11/15 03:29:10;;;;;;;13.43;13.13;;;10.60;99.90;;;;;;4924201;29;20500;-78
2023/11/15 03:31:38;;;;;;;13.83;13.43;;;10.60;99.90;;;;;;4926079;29;20454;-81
2023/11/15 03:34:08;;;;;;;14.97;14.43;;;10.60;99.90;;;;;;4927560;29;20870;-78
2023/11/15 03:36:38;;;;;;;13.70;13.20;;;10.60;1.00;;;;;;4927030;29;20508;-78
2023/11/15 03:39:08;;;;;;;13.57;13.27;;;10.60;99.90;;;;;;4925924;29;20500;-77
2023/11/15 03:41:36;;;;;;;14.23;13.30;;;10.60;99.90;;;;;;4924731;29;20498;-77
2023/11/15 03:44:04;;;;;;;13.67;13.17;;;10.60;99.90;;;;;;4924311;29;20554;-76
2023/11/15 03:46:32;;;;;;;13.90;13.30;;;10.50;99.90;;;;;;4926474;29;20445;-78
2023/11/15 03:49:00;;;;;;;13.50;13.10;;;10.60;99.90;;;;;;4923728;29;20485;-78
2023/11/15 03:51:30;;;;;;;13.37;12.87;;;10.50;99.90;;;;;;4921042;29;21100;-78
2023/11/15 03:53:58;;;;;;;12.60;12.40;;;10.50;99.90;;;;;;4921002;29;20465;-79
2023/11/15 03:56:26;;;;;;;13.40;12.80;;;10.40;99.90;;;;;;4920617;29;20446;-79
2023/11/15 03:58:54;;;;;;;12.90;12.63;;;10.50;99.90;;;;;;4922546;29;20875;-78
2023/11/15 04:01:22;;;;;;;13.60;13.00;;;10.40;99.90;;;;;;4917880;29;20458;-78
2023/11/15 04:03:50;;;;;;;13.80;13.20;;;10.40;1.00;;;;;;4923075;29;20462;-80
2023/11/15 04:06:19;;;;;;;13.30;12.90;;;10.40;1.00;;;;;;4924453;29;20457;-77
2023/11/15 04:08:49;;;;;;;13.30;12.80;;;10.40;1.00;;;;;;4918394;29;20490;-78
2023/11/15 04:11:17;;;;;;;13.87;13.37;;;10.40;99.90;;;;;;4923668;29;20465;-79
2023/11/15 04:13:45;;;;;;;13.43;12.93;;;10.40;99.90;;;;;;4923325;29;20449;-79
2023/11/15 04:16:13;;;;;;;13.67;13.23;;;10.40;99.90;;;;;;4921357;29;20465;-79
2023/11/15 04:18:41;;;;;;;13.63;13.20;;;10.40;99.90;;;;;;4921628;29;20484;-78
2023/11/15 04:21:09;;;;;;;14.07;13.43;;;10.40;99.90;;;;;;4921682;29;20461;-78
2023/11/15 04:23:38;;;;;;;14.30;13.40;;;10.40;99.90;;;;;;4925403;29;20553;-78
2023/11/15 04:26:07;;;;;;;13.63;13.27;;;10.40;99.90;;;;;;4920582;29;20461;-78
2023/11/15 04:28:35;;;;;;;13.97;13.47;;;10.40;99.90;;;;;;4924788;29;20476;-80
2023/11/15 04:31:03;;;;;;;14.57;14.07;;;10.40;99.90;;;;;;4925147;29;21037;-78
2023/11/15 04:33:31;;;;;;;14.23;13.73;;;10.40;99.90;;;;;;4925670;29;20461;-78
2023/11/15 04:36:00;;;;;;;14.20;13.80;;;10.40;99.90;;;;;;4922460;29;20533;-78
2023/11/15 04:38:28;;;;;;;13.87;13.47;;;10.40;99.90;;;;;;4920329;29;20999;-81
2023/11/15 04:40:56;;;;;;;14.17;13.70;;;10.40;1.00;;;;;;4918758;29;20541;-79
2023/11/15 04:43:26;;;;;;;13.43;13.13;;;10.50;1.00;;;;;;4923411;29;20829;-79
2023/11/15 04:45:54;;;;;;;14.40;13.80;;;10.50;1.00;;;;;;4924819;29;20460;-79
2023/11/15 04:48:22;;;;;;;13.90;13.37;;;10.40;1.00;;;;;;4926080;29;20532;-77
2023/11/15 04:50:50;;;;;;;14.13;13.63;;;10.40;12.50;;;;;;4924013;29;20449;-77
2023/11/15 04:53:19;;;;;;;13.60;13.20;;;10.40;99.90;;;;;;4926048;29;20975;-78
2023/11/15 04:55:47;;;;;;;14.20;13.60;;;10.50;99.90;;;;;;4927963;29;20476;-78
2023/11/15 04:58:15;;;;;;;13.13;12.80;;;10.40;99.90;;;;;;4924040;29;21382;-77
2023/11/15 05:00:45;;;;;;;14.03;13.57;;;10.50;1.00;;;;;;4921646;29;20477;-77
2023/11/15 05:03:13;;;;;;;13.20;12.90;;;10.50;13.20;;;;;;4931190;29;20496;-78
2023/11/15 05:05:42;;;;;;;13.57;13.17;;;10.40;1.00;;;;;;4926279;29;20549;-80
2023/11/15 05:08:11;;;;;;;14.03;13.57;;;10.40;1.00;;;;;;4929800;29;20492;-77
2023/11/15 05:10:39;;;;;;;14.40;13.70;;;10.40;99.90;;;;;;4929854;29;20446;-77
2023/11/15 05:13:08;;;;;;;13.47;13.10;;;10.40;99.90;;;;;;4926727;29;20465;-76
2023/11/15 05:15:36;;;;;;;13.40;13.10;;;10.40;99.90;;;;;;4931543;29;20449;-76
2023/11/15 05:18:05;;;;;;;13.50;13.00;;;10.40;1.00;;;;;;4929929;29;20556;-77
2023/11/15 05:20:33;;;;;;;13.60;13.20;;;10.30;1.00;;;;;;4925327;29;20466;-80
2023/11/15 05:23:02;;;;;;;13.57;13.13;;;10.40;1.00;;;;;;4924270;29;20468;-79
2023/11/15 05:25:31;;;;;;;13.67;13.27;;;10.40;1.00;;;;;;4921005;29;22355;-79
2023/11/15 05:27:59;;;;;;;13.80;13.40;;;10.40;99.90;;;;;;4924998;29;20473;-77
2023/11/15 05:30:28;;;;;;;13.47;13.17;;;10.40;99.90;;;;;;4924240;29;21105;-78
2023/11/15 05:32:57;;;;;;;13.70;13.30;;;10.40;99.90;;;;;;4923132;29;20557;-76
2023/11/15 05:35:26;;;;;;;15.23;14.70;;;10.30;1.00;;;;;;4924867;29;20528;-78
2023/11/15 05:37:54;;;;;;;13.60;13.20;;;10.30;1.00;;;;;;4926736;29;20485;-79
2023/11/15 05:40:23;;;;;;;13.00;12.60;;;10.30;99.90;;;;;;4927305;29;21030;-79
2023/11/15 05:42:51;;;;;;;13.67;13.17;;;10.20;99.90;;;;;;4927176;29;20462;-78
2023/11/15 05:45:19;;;;;;;13.20;12.80;;;10.30;1.00;;;;;;4926292;29;20539;-78
2023/11/15 05:47:47;;;;;;;13.90;13.10;;;10.30;1.00;;;;;;4926217;29;20571;-82
2023/11/15 05:50:15;;;;;;;13.53;13.13;;;10.30;90.00;;;;;;4926916;29;20484;-78
2023/11/15 05:52:44;;;;;;;13.53;13.10;;;10.20;99.90;;;;;;4924918;29;20461;-80
2023/11/15 05:55:13;;;;;;;13.80;13.30;;;10.20;99.90;;;;;;4926370;29;20488;-78
2023/11/15 05:57:41;;;;;;;14.17;13.47;;;10.20;1.00;;;;;;4927710;29;20481;-78
2023/11/15 06:00:18;;;;;;;14.40;13.70;;;10.20;99.90;;;;;;4925005;29;20473;-78
2023/11/15 06:02:47;;;;;;;15.57;14.93;;;10.30;99.90;;;;;;4921506;29;20576;-78
2023/11/15 06:05:16;;;;;;;13.77;13.40;;;10.30;99.90;;;;;;4922631;29;21059;-76
2023/11/15 06:07:46;;;;;;;14.20;13.60;;;10.30;1.00;;;;;;4920919;29;20489;-76
2023/11/15 06:10:15;;;;;;;14.20;13.70;;;10.30;1.00;;;;;;4927497;29;20484;-76
2023/11/15 06:12:43;;;;;;;14.20;13.70;;;10.30;1.00;;;;;;4924213;29;20477;-79
2023/11/15 06:15:12;;;;;;;15.23;14.73;;;10.30;1.00;;;;;;4924633;29;20810;-77
2023/11/15 06:17:42;;;;;;;13.87;13.37;;;10.30;99.90;;;;;;4925960;29;20470;-75
2023/11/15 06:20:11;;;;;;;13.60;13.30;;;10.30;1.00;;;;;;4925660;29;20544;-77
2023/11/15 06:22:39;;;;;;;14.13;13.83;;;10.30;99.90;;;;;;4924466;29;20453;-76
2023/11/15 06:25:09;;;;;;;14.30;13.70;;;10.30;99.90;;;;;;4927570;29;20461;-80
2023/11/15 06:27:38;;;;;;;13.80;13.43;;;10.30;99.90;;;;;;4924778;29;20497;-79
2023/11/15 06:30:09;;;;;;;13.63;13.23;;;10.30;99.90;;;;;;4925191;29;20843;-78
2023/11/15 06:32:38;;;;;;;14.63;14.13;;;10.20;99.90;;;;;;4925222;29;20450;-81
2023/11/15 06:35:06;;;;;;;14.43;13.93;;;10.20;1.00;;;;;;4922054;29;20529;-80
2023/11/15 06:37:34;;;;;;;14.80;14.10;;;10.20;1.00;;;;;;4924136;29;20478;-79
2023/11/15 06:40:07;;;;;;;14.83;14.43;;;10.20;1.00;;;;;;4926985;29;20450;-79
2023/11/15 06:42:36;;;;;;;14.30;13.70;;;10.20;1.00;;;;;;4927811;29;20516;-77
2023/11/15 06:45:06;;;;;;;14.87;14.27;;;10.20;99.90;;;;;;4925078;29;20469;-78
2023/11/15 06:47:35;;;;;;;14.77;14.07;;;10.20;99.90;;;;;;4925616;29;20552;-78
2023/11/15 06:50:05;;;;;;;15.10;14.60;;;10.30;99.90;;;;;;4925163;29;20477;-77
2023/11/15 06:52:33;;;;;;;14.33;13.60;;;10.20;99.90;;;;;;4928585;29;20458;-78
2023/11/15 06:55:03;;;;;;;14.30;13.70;;;10.20;99.90;;;;;;4924782;29;20462;-79
2023/11/15 06:57:31;;;;;;;14.93;14.53;;;10.20;99.90;;;;;;4926780;29;20473;-79
2023/11/15 07:00:00;;;;;;;14.60;13.90;;;10.30;11.70;;;;;;4929592;29;20464;-79
2023/11/15 07:02:29;;;;;;;14.20;13.80;;;10.20;99.90;;;;;;4930053;29;20457;-79
2023/11/15 07:04:57;;;;;;;14.60;14.10;;;10.30;1.00;;;;;;4924363;29;20473;-80
2023/11/15 07:07:27;;;;;;;14.70;13.77;;;10.30;1.00;;;;;;4923058;29;20457;-78
2023/11/15 07:09:55;;;;;;;14.40;13.90;;;10.30;99.90;;;;;;4927419;29;20469;-77
2023/11/15 07:12:24;;;;;;;14.33;13.93;;;10.30;1.00;;;;;;4926013;29;20461;-78
2023/11/15 07:14:52;;;;;;;14.37;13.60;;;10.30;94.80;;;;;;4924799;29;20463;-77
2023/11/15 07:17:23;;;;;;;14.30;13.67;;;10.30;1.00;;;;;;4924262;29;20609;-78
2023/11/15 07:19:51;;;;;;;13.90;13.40;;;10.40;99.90;;;;;;4921294;29;20468;-80
2023/11/15 07:22:19;;;;;;;14.43;13.70;;;10.40;99.90;;;;;;4921622;29;20476;-79
2023/11/15 07:24:47;;;;;;;14.40;13.70;;;10.40;99.90;;;;;;4926109;29;20979;-78
2023/11/15 07:27:17;;;;;;;14.50;13.90;;;10.50;1.00;;;;;;4923339;29;20457;-77
2023/11/15 07:29:46;;;;;;;14.60;14.13;;;10.60;1.00;;;;;;4923982;29;21002;-76
2023/11/15 07:32:17;;;;;;;13.93;13.50;;;10.60;1.00;;;;;;4926826;29;20472;-79
2023/11/15 07:34:47;;;;;;;14.70;14.20;;;10.60;99.90;;;;;;4923828;29;20553;-77
2023/11/15 07:37:15;;;;;;;14.77;14.20;;;10.60;1.00;;;;;;4926489;29;20447;-77
2023/11/15 07:39:43;;;;;;;14.83;14.43;;;10.50;99.90;;;;;;4925093;29;20513;-78
2023/11/15 07:42:11;;;;;;;14.80;14.30;;;10.50;99.90;;;;;;4927142;29;20458;-78
2023/11/15 07:44:40;;;;;;;15.70;14.70;;;10.50;99.90;;;;;;4925308;29;20461;-77
2023/11/15 07:47:10;;;;;;;14.77;13.90;;;10.40;1.00;;;;;;4922226;29;20461;-76
2023/11/15 07:49:39;;;;;;;14.10;13.70;;;10.40;1.00;;;;;;4922392;29;20461;-77
2023/11/15 07:52:08;;;;;;;14.70;14.17;;;10.40;99.90;;;;;;4919062;29;20454;-77
2023/11/15 07:54:37;;;;;;;14.43;13.90;;;10.40;99.90;;;;;;4927025;29;20542;-78
2023/11/15 07:57:07;;;;;;;14.10;13.70;;;10.50;99.90;;;;;;4928821;29;20457;-79
2023/11/15 07:59:38;;;;;;;14.57;13.90;;;10.40;99.90;;;;;;4925286;29;20473;-77
2023/11/15 08:02:06;;;;;;;15.30;14.60;;;10.40;20.50;;;;;;4922585;29;20475;-79
2023/11/15 08:04:35;;;;;;;15.00;14.40;;;10.40;1.00;;;;;;4918694;29;20541;-81
2023/11/15 08:07:04;;;;;;;15.20;14.50;;;10.50;99.90;;;;;;4923321;29;20976;-78
2023/11/15 08:09:34;;;;;;;15.03;14.50;;;10.50;99.90;;;;;;4926560;29;20585;-79
2023/11/15 08:12:05;;;;;;;15.13;14.60;;;10.50;99.90;;;;;;4926136;29;20532;-77
2023/11/15 08:14:33;;;;;;;15.93;14.93;;;10.50;1.00;;;;;;4926722;29;20545;-77
2023/11/15 08:17:03;;;;;;;15.67;15.07;;;10.50;99.90;;;;;;4925868;29;20474;-78
2023/11/15 08:19:31;;;;;;;14.70;14.30;;;10.40;10.70;;;;;;4922331;29;20470;-78
2023/11/15 08:22:00;;;;;;;15.20;14.67;;;10.40;99.90;;;;;;4922184;29;20480;-77
2023/11/15 08:24:28;;;;;;;14.50;14.10;;;10.40;1.00;;;;;;4925197;29;20455;-79
2023/11/15 08:26:57;;;;;;;14.70;14.20;;;10.50;99.90;;;;;;4925963;29;20980;-77
2023/11/15 08:29:26;;;;;;;13.90;13.60;;;10.50;99.90;;;;;;4924251;29;20477;-79
2023/11/15 08:31:54;;;;;;;14.87;14.37;;;10.50;99.90;;;;;;4925730;29;20891;-77
2023/11/15 08:34:24;;;;;;;14.50;14.10;;;10.50;99.90;;;;;;4923853;29;20470;-78
2023/11/15 08:36:53;;;;;;;14.60;14.10;;;10.50;1.00;;;;;;4924090;29;20544;-78
2023/11/15 08:39:22;;;;;;;15.03;14.43;;;10.50;1.00;;;;;;4926884;29;20465;-77
2023/11/15 08:41:50;;;;;;;14.70;14.20;;;10.60;33.30;;;;;;4926606;29;20472;-77
2023/11/15 08:44:20;;;;;;;14.60;14.10;;;10.60;1.00;;;;;;4924253;29;20454;-78
2023/11/15 08:46:50;;;;;;;14.67;14.17;;;10.60;99.90;;;;;;4919008;29;20457;-81
2023/11/15 08:49:20;;;;;;;14.90;14.30;;;10.60;1.00;;;;;;4922831;29;20471;-79
2023/11/15 08:51:50;;;;;;;14.90;14.40;;;10.60;1.00;;;;;;4922990;29;20484;-84
2023/11/15 08:54:21;;;;;;;15.50;14.70;;;10.60;99.90;;;;;;4927140;29;20525;-78
2023/11/15 08:56:50;;;;;;;14.43;13.93;;;10.60;1.00;;;;;;4921761;29;20450;-77
2023/11/15 08:59:24;;;;;;;15.47;14.80;;;10.60;1.00;;;;;;4927027;29;20512;-82
2023/11/15 09:01:54;;;;;;;14.30;13.90;;;10.70;1.00;;;;;;4925254;29;20513;-79
2023/11/15 09:04:22;;;;;;;15.13;14.67;;;10.70;1.00;;;;;;4925812;29;20509;-80
2023/11/15 09:06:52;;;;;;;14.90;14.30;;;10.80;1.00;;;;;;4924549;29;20461;-77
2023/11/15 09:09:20;;;;;;;15.00;14.30;;;10.80;1.00;;;;;;4921802;29;20485;-80
2023/11/15 09:11:51;;;;;;;14.80;14.20;;;10.90;1.00;;;;;;4923976;29;20476;-81
2023/11/15 09:14:19;;;;;;;14.97;14.50;;;11.00;99.90;;;;;;4923501;29;20512;-78
2023/11/15 09:16:50;;;;;;;14.90;14.33;;;11.20;99.90;;;;;;4920630;29;20971;-80
2023/11/15 09:19:20;;;;;;;15.50;14.80;;;11.60;99.90;;;;;;4922402;29;20484;-81
2023/11/15 09:21:48;;;;;;;15.10;14.60;;;11.70;99.90;;;;;;4921147;29;20461;-81
2023/11/15 09:24:21;;;;;;;15.90;15.20;;;11.60;99.90;;;;;;4920573;29;20462;-80
2023/11/15 09:26:50;;;;;;;15.37;14.90;;;12.00;1.00;;;;;;4916939;29;20867;-79
2023/11/15 09:29:20;;;;;;;15.83;15.33;;;12.80;1.00;;;;;;4916610;29;20522;-78
2023/11/15 09:31:49;;;;;;;16.73;15.93;;;13.60;21.30;;;;;;4922977;29;20564;-77
2023/11/15 09:34:18;;;;;;;15.70;15.20;;;14.40;99.90;;;;;;4926924;29;20526;-77
2023/11/15 09:36:47;;;;;;;15.30;14.80;;;15.00;1.00;;;;;;4921281;29;20457;-78
2023/11/15 09:39:17;;;;;;;15.23;14.63;;;15.60;1.00;;;;;;4920143;29;20561;-79
2023/11/15 09:41:53;;;;;;;15.00;14.50;;;15.90;1.00;;;;;;4924664;29;20452;-78
2023/11/15 09:44:23;;;;;;;15.37;14.77;;;15.30;1.00;;;;;;4924017;29;20461;-77
2023/11/15 09:46:57;;;;;;;14.73;14.30;;;14.70;1.00;;;;;;4922799;29;20457;-78
2023/11/15 09:49:26;;;;;;;15.27;14.70;;;13.90;1.00;;;;;;4926491;29;20498;-78
2023/11/15 09:51:59;;;;;;;15.60;15.00;;;13.50;1.00;;;;;;4921433;29;21038;-78
2023/11/15 09:54:27;;;;;;;15.30;14.80;;;13.20;99.90;;;;;;4928426;29;20565;-77
2023/11/15 09:56:59;;;;;;;15.37;14.87;;;13.00;99.90;;;;;;4925031;29;20462;-76
2023/11/15 09:59:28;;;;;;;15.87;15.13;;;13.00;99.90;;;;;;4926313;29;20474;-77
2023/11/15 10:01:59;;;;;;;16.33;15.63;;;13.00;1.00;;;;;;4926944;29;21006;-77
2023/11/15 10:04:28;;;;;;;14.93;14.53;;;13.00;1.00;;;;;;4930113;29;20461;-77
2023/11/15 10:06:57;;;;;;;14.87;14.37;;;13.00;99.90;;;;;;4924123;29;20578;-78
2023/11/15 10:09:35;;;;;;;15.10;14.50;;;12.90;99.90;;;;;;4927472;29;20488;-79
2023/11/15 10:12:05;;;;;;;14.10;13.70;;;13.00;99.90;;;;;;4924129;29;20497;-79
2023/11/15 10:14:36;;;;;;;14.83;14.37;;;13.70;99.90;;;;;;4925633;29;20473;-78
2023/11/15 10:17:06;;;;;;;14.40;14.10;;;15.40;21.90;;;;;;4925096;29;20483;-79
2023/11/15 10:19:35;;;;;;;14.57;14.17;;;15.40;99.90;;;;;;4923319;29;20482;-77
2023/11/15 10:22:05;;;;;;;14.27;13.70;;;15.80;99.90;;;;;;4923353;29;20461;-80
2023/11/15 10:24:34;;;;;;;14.23;13.83;;;16.00;99.90;;;;;;4927235;29;20462;-79
2023/11/15 10:27:08;;;;;;;14.17;13.77;;;17.20;99.90;;;;;;4926249;29;20517;-78
2023/11/15 10:29:38;;;;;;;13.90;13.57;;;18.00;99.90;;;;;;4924288;29;20504;-79
2023/11/15 10:32:09;;;;;;;14.40;14.00;;;18.80;99.90;;;;;;4927744;29;20478;-77
2023/11/15 10:34:48;;;;;;;14.90;14.50;;;19.60;99.90;;;;;;4929085;29;20968;-78
2023/11/15 10:37:18;;;;;;;15.87;15.00;;;19.10;99.90;;;;;;4922210;29;20981;-79
2023/11/15 10:39:47;;;;;;;15.20;14.70;;;19.40;99.90;;;;;;4922957;29;20964;-77
2023/11/15 10:42:17;;;;;;;14.90;14.40;;;19.50;99.90;;;;;;4925870;29;20454;-79
2023/11/15 10:44:47;;;;;;;15.10;14.07;;;18.90;99.90;;;;;;4925619;29;20521;-79
2023/11/15 10:47:21;;;;;;;14.40;14.00;;;18.00;99.90;;;;;;4924918;29;20486;-77
2023/11/15 10:49:55;;;;;;;14.63;14.17;;;17.30;99.90;;;;;;4926273;29;20494;-80
2023/11/15 10:52:24;;;;;;;14.20;13.80;;;17.10;99.90;;;;;;4921766;29;20473;-78
2023/11/15 10:54:56;;;;;;;15.30;14.80;;;16.80;99.90;;;;;;4924864;29;20464;-79
2023/11/15 10:57:27;;;;;;;14.87;14.37;;;16.80;99.90;;;;;;4923950;29;20450;-80
2023/11/15 10:59:57;;;;;;;14.60;14.20;;;16.70;99.90;;;;;;4923661;29;20464;-77
2023/11/15 11:02:31;;;;;;;14.73;14.33;;;17.00;99.90;;;;;;4924085;29;20458;-79
2023/11/15 11:05:00;;;;;;;14.70;14.20;;;17.80;99.90;;;;;;4927984;29;20513;-80
2023/11/15 11:07:40;;;;;;;14.70;14.20;;;18.80;99.90;;;;;;4921414;29;20844;-78
2023/11/15 11:10:14;;;;;;;14.23;13.83;;;19.40;99.90;;;;;;4927920;29;20607;-78
2023/11/15 11:12:42;;;;;;;14.00;13.70;;;19.30;99.90;;;;;;4922365;29;21021;-79
2023/11/15 11:15:32;;;;;;;13.83;13.53;;;18.40;99.90;;;;;;4924263;29;20819;-79
2023/11/15 11:18:13;;;;;;;15.43;14.73;;;17.30;99.90;;;;;;4923137;29;20504;-77
2023/11/15 11:20:42;;;;;;;14.40;14.00;;;16.80;99.90;;;;;;4925129;29;20458;-79
2023/11/15 11:23:16;;;;;;;14.50;14.00;;;16.40;99.90;;;;;;4924966;29;21152;-82
2023/11/15 11:25:46;;;;;;;14.30;13.90;;;16.00;99.90;;;;;;4925616;29;21303;-77
2023/11/15 11:28:15;;;;;;;14.30;13.80;;;16.00;99.90;;;;;;4924463;29;20482;-80
2023/11/15 11:30:44;;;;;;;14.03;13.50;;;15.80;99.90;;;;;;4926719;29;20970;-77
2023/11/15 11:33:18;;;;;;;14.77;14.27;;;15.60;99.90;;;;;;4924841;29;20564;-80
2023/11/15 11:35:48;;;;;;;14.53;13.93;;;15.50;99.90;;;;;;4923301;29;21324;-80
2023/11/15 11:38:50;;;;;;;13.90;13.53;;;15.50;99.90;;;;;;4918411;29;20477;-77
2023/11/15 11:41:19;;;;;;;14.37;13.80;;;15.50;99.90;;;;;;4884166;29;20547;-82
2023/11/15 11:43:56;;;;;;;14.40;13.90;;;15.40;99.90;;;;;;4881704;29;20872;-78
2023/11/15 11:46:24;;;;;;;14.27;13.87;;;15.20;99.90;;;;;;4903069;29;20477;-77
2023/11/15 11:49:00;;;;;;;14.53;13.83;;;15.20;99.90;;;;;;4920045;29;20482;-78
2023/11/15 11:51:28;;;;;;;14.00;13.50;;;15.20;99.90;;;;;;4920952;29;20512;-77
2023/11/15 11:53:57;;;;;;;14.00;13.63;;;15.20;99.90;;;;;;4922943;29;21156;-78
2023/11/15 11:56:26;;;;;;;13.77;13.47;;;15.20;99.90;;;;;;4926081;29;20471;-78
2023/11/15 11:58:54;;;;;;;13.40;13.10;;;15.20;99.90;;;;;;4920988;29;20855;-77
2023/11/15 12:01:25;;;;;;;13.50;13.10;;;15.10;99.90;;;;;;4925143;29;20938;-79
2023/11/15 12:04:01;;;;;;;13.90;13.40;;;15.10;99.90;;;;;;4924419;29;20505;-82
2023/11/15 12:06:28;;;;;;;13.50;13.10;;;15.10;99.90;;;;;;4925785;29;20452;-83
2023/11/15 12:08:57;;;;;;;13.93;13.43;;;15.00;99.90;;;;;;4923125;29;20486;-83
2023/11/15 12:11:25;;;;;;;14.47;13.87;;;15.00;99.90;;;;;;4920969;29;20457;-84
2023/11/15 12:13:53;;;;;;;13.90;13.60;;;15.00;99.90;;;;;;4925555;29;20482;-84
2023/11/15 12:16:23;;;;;;;13.53;13.13;;;15.10;99.90;;;;;;4924287;29;20450;-83
2023/11/15 12:19:03;;;;;;;13.70;13.23;;;15.20;99.90;;;;;;4922029;29;20481;-82
2023/11/15 12:21:33;;;;;;;13.97;13.43;;;15.20;99.90;;;;;;4925278;29;20461;-83
2023/11/15 12:24:09;;;;;;;13.97;13.50;;;15.20;99.90;;;;;;4925403;29;20469;-84
2023/11/15 12:26:43;;;;;;;14.43;13.87;;;15.20;99.90;;;;;;4924461;29;20454;-83
2023/11/15 12:29:20;;;;;;;14.33;13.60;;;15.20;99.90;;;;;;4923237;29;20489;-82
2023/11/15 12:31:50;;;;;;;13.90;13.50;;;15.20;99.90;;;;;;4922499;29;20478;-83
2023/11/15 12:34:21;;;;;;;14.17;13.50;;;15.20;99.90;;;;;;4925260;29;20494;-82
2023/11/15 12:36:51;;;;;;;14.70;14.30;;;15.20;99.90;;;;;;4925821;29;20544;-81
2023/11/15 12:39:21;;;;;;;14.00;13.70;;;15.20;99.90;;;;;;4923685;29;20580;-81
2023/11/15 12:41:52;;;;;;;13.67;13.37;;;15.20;99.90;;;;;;4922920;29;20538;-80